Time;durP1;ratioP1;P1;durP2;ratioP2;P2;SDS_P1;SDS_P2;PMS_P1;PMS_P2;Temp;Humidity;BMP_temperature;BMP_pressure;BME280_temperature;BME280_humidity;BME280_pressure;Samples;Min_cycle;Max_cycle;Signal;HPM_P1;HPM_P2
2023/07/22 00:00:48;;;;;;;10.87;9.17;;;15.00;99.90;;;;;;5033917;28;20458;-72
2023/07/22 00:03:16;;;;;;;11.47;8.60;;;15.00;99.90;;;;;;5032714;28;20418;-72
2023/07/22 00:05:44;;;;;;;11.90;9.50;;;15.00;99.90;;;;;;5032541;28;20450;-72
2023/07/22 00:08:12;;;;;;;11.07;10.07;;;15.00;99.90;;;;;;5033687;28;20483;-73
2023/07/22 00:10:43;;;;;;;10.37;9.47;;;14.90;99.90;;;;;;5032598;28;20482;-72
2023/07/22 00:13:12;;;;;;;11.67;10.47;;;14.90;99.90;;;;;;5032824;28;20428;-72
2023/07/22 00:15:41;;;;;;;9.43;8.43;;;14.90;99.90;;;;;;5033452;28;20939;-72
2023/07/22 00:18:10;;;;;;;11.07;9.97;;;14.90;99.90;;;;;;5032505;28;20483;-72
2023/07/22 00:20:38;;;;;;;10.73;9.40;;;14.90;99.90;;;;;;5032498;28;20787;-72
2023/07/22 00:23:06;;;;;;;11.50;9.57;;;14.80;99.90;;;;;;5032517;28;20446;-72
2023/07/22 00:25:34;;;;;;;10.03;8.93;;;14.90;99.90;;;;;;5033927;28;20589;-72
2023/07/22 00:28:03;;;;;;;12.17;10.80;;;14.80;99.90;;;;;;5032719;28;20544;-72
2023/07/22 00:30:33;;;;;;;11.80;10.60;;;14.80;99.90;;;;;;5032956;28;20465;-72
2023/07/22 00:33:03;;;;;;;10.63;9.73;;;14.80;99.90;;;;;;5034080;28;20394;-72
2023/07/22 00:35:31;;;;;;;9.97;8.97;;;14.80;99.90;;;;;;5035238;28;20883;-72
2023/07/22 00:38:00;;;;;;;10.27;9.37;;;14.80;99.90;;;;;;5036683;28;20500;-72
2023/07/22 00:40:30;;;;;;;12.20;9.70;;;14.70;99.90;;;;;;5036613;28;20498;-72
2023/07/22 00:42:59;;;;;;;10.47;9.47;;;14.70;99.90;;;;;;5036581;28;20958;-72
2023/07/22 00:45:27;;;;;;;11.07;9.27;;;14.70;99.90;;;;;;5038074;28;20967;-72
2023/07/22 00:47:56;;;;;;;12.13;10.83;;;14.70;99.90;;;;;;5038413;28;20778;-72
2023/07/22 00:50:26;;;;;;;10.50;9.43;;;14.60;99.90;;;;;;5036439;28;20463;-72
2023/07/22 00:52:54;;;;;;;10.97;9.90;;;14.60;99.90;;;;;;5036627;28;20474;-72
2023/07/22 00:55:22;;;;;;;10.90;9.80;;;14.60;99.90;;;;;;5036345;28;20980;-72
2023/07/22 00:57:50;;;;;;;10.37;9.37;;;14.60;99.90;;;;;;5037963;28;20459;-72
2023/07/22 01:00:18;;;;;;;10.30;9.30;;;14.60;99.90;;;;;;5036337;28;20461;-72
2023/07/22 01:02:47;;;;;;;11.27;8.87;;;14.50;99.90;;;;;;5036309;28;20791;-72
2023/07/22 01:05:17;;;;;;;10.47;9.37;;;14.50;99.90;;;;;;5036071;28;20418;-72
2023/07/22 01:07:45;;;;;;;9.10;8.10;;;14.50;99.90;;;;;;5036139;28;20497;-72
2023/07/22 01:10:15;;;;;;;10.17;8.63;;;14.50;99.90;;;;;;5037156;28;20888;-72
2023/07/22 01:12:45;;;;;;;10.90;9.10;;;14.50;99.90;;;;;;5036107;28;20538;-72
2023/07/22 01:15:13;;;;;;;9.67;8.60;;;14.40;99.90;;;;;;5037743;28;20512;-72
2023/07/22 01:17:42;;;;;;;10.50;9.33;;;14.40;99.90;;;;;;5037308;28;21010;-72
2023/07/22 01:20:11;;;;;;;8.33;7.30;;;14.40;99.90;;;;;;5035723;28;20492;-72
2023/07/22 01:22:49;;;;;;;11.93;8.63;;;14.40;99.90;;;;;;5035871;28;20453;-72
2023/07/22 01:25:17;;;;;;;11.30;8.00;;;14.40;99.90;;;;;;5037155;28;20423;-72
2023/07/22 01:27:46;;;;;;;9.33;8.43;;;14.40;99.90;;;;;;5035450;28;20762;-72
2023/07/22 01:30:14;;;;;;;9.00;8.20;;;14.40;99.90;;;;;;5036769;28;20458;-72
2023/07/22 01:32:42;;;;;;;10.70;8.80;;;14.30;99.90;;;;;;5035618;28;20482;-72
2023/07/22 01:35:11;;;;;;;11.03;9.20;;;14.30;99.90;;;;;;5035537;28;20447;-72
2023/07/22 01:37:39;;;;;;;10.97;8.83;;;14.30;99.90;;;;;;5035390;28;20502;-72
2023/07/22 01:40:11;;;;;;;10.57;9.03;;;14.30;99.90;;;;;;5035185;28;20865;-72
2023/07/22 01:42:40;;;;;;;11.10;8.90;;;14.30;99.90;;;;;;5035262;28;20447;-72
2023/07/22 01:45:10;;;;;;;9.73;8.73;;;14.20;99.90;;;;;;5035074;28;20827;-72
2023/07/22 01:47:39;;;;;;;9.17;8.17;;;14.20;99.90;;;;;;5036659;28;20435;-72
2023/07/22 01:50:08;;;;;;;10.40;8.77;;;14.20;99.90;;;;;;5036192;28;20865;-72
2023/07/22 01:52:37;;;;;;;9.90;8.67;;;14.20;99.90;;;;;;5034688;28;20422;-72
2023/07/22 01:55:06;;;;;;;9.53;8.53;;;14.20;99.90;;;;;;5035925;28;20431;-72
2023/07/22 01:57:35;;;;;;;11.07;9.40;;;14.10;99.90;;;;;;5036054;28;20441;-72
2023/07/22 02:00:05;;;;;;;9.63;8.07;;;14.10;99.90;;;;;;5035094;28;21014;-72
2023/07/22 02:02:39;;;;;;;10.70;9.03;;;14.10;99.90;;;;;;5036323;28;20926;-72
2023/07/22 02:05:09;;;;;;;10.40;9.13;;;14.10;99.90;;;;;;5036427;28;20442;-72
2023/07/22 02:07:38;;;;;;;10.23;9.13;;;14.10;99.90;;;;;;5036204;28;20442;-72
2023/07/22 02:10:08;;;;;;;10.83;9.67;;;14.00;99.90;;;;;;5034673;28;20482;-72
2023/07/22 02:12:37;;;;;;;10.87;9.77;;;14.00;99.90;;;;;;5036030;28;20514;-72
2023/07/22 02:15:06;;;;;;;11.63;9.10;;;14.00;99.90;;;;;;5035045;28;20533;-72
2023/07/22 02:17:34;;;;;;;10.10;9.10;;;14.00;99.90;;;;;;5034586;28;20498;-72
2023/07/22 02:20:04;;;;;;;10.60;8.77;;;14.00;99.90;;;;;;5035415;28;20455;-72
2023/07/22 02:22:32;;;;;;;10.00;8.73;;;13.90;99.90;;;;;;5034662;28;20970;-72
2023/07/22 02:25:00;;;;;;;10.63;8.70;;;13.90;99.90;;;;;;5035610;28;20442;-72
2023/07/22 02:27:28;;;;;;;11.20;9.10;;;13.90;99.90;;;;;;5034234;28;20439;-72
2023/07/22 02:29:58;;;;;;;11.00;9.10;;;13.90;99.90;;;;;;5035640;28;20485;-72
2023/07/22 02:32:26;;;;;;;11.90;10.10;;;13.90;99.90;;;;;;5034331;28;20510;-72
2023/07/22 02:34:54;;;;;;;10.70;9.17;;;13.80;99.90;;;;;;5034168;28;20983;-72
2023/07/22 02:37:23;;;;;;;12.67;8.80;;;13.80;99.90;;;;;;5035808;28;20471;-72
2023/07/22 02:39:51;;;;;;;11.30;10.10;;;13.80;99.90;;;;;;5035649;28;20431;-72
2023/07/22 02:42:19;;;;;;;12.20;9.63;;;13.80;99.90;;;;;;5035102;28;20443;-72
2023/07/22 02:44:47;;;;;;;11.33;9.80;;;13.80;99.90;;;;;;5035198;28;20519;-72
2023/07/22 02:47:18;;;;;;;11.60;9.80;;;13.70;99.90;;;;;;5034241;28;20990;-72
2023/07/22 02:49:46;;;;;;;13.50;10.47;;;13.70;99.90;;;;;;5035067;28;20447;-72
2023/07/22 02:52:14;;;;;;;11.03;9.57;;;13.70;99.90;;;;;;5035090;28;20471;-72
2023/07/22 02:54:42;;;;;;;16.23;11.03;;;13.70;99.90;;;;;;5034036;28;20443;-72
2023/07/22 02:57:10;;;;;;;11.00;9.23;;;13.70;99.90;;;;;;5032847;28;20517;-72
2023/07/22 02:59:38;;;;;;;9.70;8.70;;;13.70;99.90;;;;;;5033568;28;20435;-72
2023/07/22 03:02:07;;;;;;;14.03;11.03;;;13.70;99.90;;;;;;5033623;28;20498;-72
2023/07/22 03:04:36;;;;;;;11.03;9.27;;;13.70;99.90;;;;;;5033411;28;20538;-72
2023/07/22 03:07:06;;;;;;;10.67;9.57;;;13.70;99.90;;;;;;5033538;28;20835;-72
2023/07/22 03:09:34;;;;;;;11.80;9.30;;;13.60;99.90;;;;;;5033404;28;20786;-72
2023/07/22 03:12:03;;;;;;;11.33;9.80;;;13.60;99.90;;;;;;5033287;28;20514;-72
2023/07/22 03:14:37;;;;;;;9.87;8.47;;;13.60;99.90;;;;;;5033417;28;21033;-72
2023/07/22 03:17:05;;;;;;;9.03;7.90;;;13.60;99.90;;;;;;5033064;28;20447;-71
2023/07/22 03:19:34;;;;;;;10.43;9.00;;;13.60;99.90;;;;;;5033121;28;20504;-72
2023/07/22 03:22:03;;;;;;;14.00;9.50;;;13.60;99.90;;;;;;5032935;28;21026;-72
2023/07/22 03:24:31;;;;;;;10.33;9.17;;;13.50;99.90;;;;;;5034472;28;20435;-72
2023/07/22 03:26:59;;;;;;;10.70;9.60;;;13.50;99.90;;;;;;5034346;28;20492;-72
2023/07/22 03:29:28;;;;;;;10.33;8.57;;;13.50;99.90;;;;;;5032556;28;20533;-72
2023/07/22 03:31:57;;;;;;;11.00;9.70;;;13.50;99.90;;;;;;5033868;28;20481;-72
2023/07/22 03:34:25;;;;;;;10.50;9.50;;;13.50;99.90;;;;;;5032900;28;20446;-72
2023/07/22 03:36:53;;;;;;;10.47;9.30;;;13.50;99.90;;;;;;5032894;28;20501;-72
2023/07/22 03:39:22;;;;;;;11.87;9.67;;;13.50;99.90;;;;;;5032724;28;20475;-72
2023/07/22 03:41:51;;;;;;;11.77;9.70;;;13.50;99.90;;;;;;5033005;28;21030;-72
2023/07/22 03:44:19;;;;;;;11.83;10.17;;;13.50;99.90;;;;;;5032801;28;20819;-72
2023/07/22 03:46:47;;;;;;;12.60;10.20;;;13.50;99.90;;;;;;5032784;28;20474;-72
2023/07/22 03:49:15;;;;;;;11.20;10.07;;;13.40;99.90;;;;;;5032899;28;20443;-72
2023/07/22 03:51:43;;;;;;;10.10;9.00;;;13.40;99.90;;;;;;5034734;28;20864;-71
2023/07/22 03:54:11;;;;;;;10.87;9.77;;;13.40;99.90;;;;;;5033898;28;20439;-72
2023/07/22 03:56:42;;;;;;;10.33;8.90;;;13.40;99.90;;;;;;5032606;28;20445;-72
2023/07/22 03:59:10;;;;;;;11.13;9.60;;;13.40;99.90;;;;;;5032576;28;20462;-71
2023/07/22 04:01:38;;;;;;;11.80;10.60;;;13.30;99.90;;;;;;5033940;28;20544;-72
2023/07/22 04:04:06;;;;;;;12.20;9.73;;;13.30;99.90;;;;;;5033913;28;20439;-70
2023/07/22 04:06:35;;;;;;;10.47;9.47;;;13.30;99.90;;;;;;5034014;28;20464;-70
2023/07/22 04:09:03;;;;;;;12.13;9.47;;;13.30;99.90;;;;;;5032119;28;20447;-71
2023/07/22 04:11:31;;;;;;;11.40;9.43;;;13.30;99.90;;;;;;5031745;28;20565;-71
2023/07/22 04:14:00;;;;;;;11.87;9.97;;;13.30;99.90;;;;;;5032389;28;20497;-70
2023/07/22 04:16:29;;;;;;;12.00;9.77;;;13.30;99.90;;;;;;5034856;28;20816;-71
2023/07/22 04:18:58;;;;;;;11.70;10.20;;;13.30;99.90;;;;;;5032839;28;20466;-71
2023/07/22 04:21:26;;;;;;;14.40;10.00;;;13.30;99.90;;;;;;5032335;28;20813;-70
2023/07/22 04:23:54;;;;;;;11.60;10.40;;;13.30;99.90;;;;;;5032473;28;20512;-71
2023/07/22 04:26:22;;;;;;;11.83;10.30;;;13.30;99.90;;;;;;5032554;28;21008;-70
2023/07/22 04:28:50;;;;;;;14.23;12.33;;;13.30;99.90;;;;;;5033213;28;20493;-71
2023/07/22 04:31:20;;;;;;;10.93;9.87;;;13.30;99.90;;;;;;5033356;28;20479;-70
2023/07/22 04:33:48;;;;;;;13.33;10.83;;;13.30;99.90;;;;;;5032446;28;20520;-70
2023/07/22 04:36:17;;;;;;;13.57;10.40;;;13.30;99.90;;;;;;5034076;28;20474;-70
2023/07/22 04:38:45;;;;;;;13.90;10.70;;;13.30;99.90;;;;;;5032214;28;21078;-71
2023/07/22 04:41:13;;;;;;;11.03;9.90;;;13.30;99.90;;;;;;5033511;28;20470;-70
2023/07/22 04:43:41;;;;;;;11.70;10.47;;;13.30;99.90;;;;;;5033823;28;20530;-71
2023/07/22 04:46:09;;;;;;;11.60;10.40;;;13.30;99.90;;;;;;5033466;28;20469;-70
2023/07/22 04:48:39;;;;;;;15.90;11.03;;;13.30;99.90;;;;;;5033620;28;20522;-70
2023/07/22 04:51:08;;;;;;;14.50;10.87;;;13.30;99.90;;;;;;5033341;28;20461;-71
2023/07/22 04:53:36;;;;;;;12.43;11.13;;;13.40;99.90;;;;;;5033413;28;20452;-70
2023/07/22 04:56:04;;;;;;;15.17;11.30;;;13.40;99.90;;;;;;5033717;28;20442;-70
2023/07/22 04:58:33;;;;;;;12.80;11.20;;;13.40;99.90;;;;;;5033536;28;20565;-71
2023/07/22 05:01:01;;;;;;;12.47;9.10;;;13.40;99.90;;;;;;5033751;28;20467;-71
2023/07/22 05:03:29;;;;;;;16.77;10.97;;;13.40;99.90;;;;;;5032172;28;20451;-70
2023/07/22 05:05:59;;;;;;;11.37;10.20;;;13.50;99.90;;;;;;5033657;28;20928;-71
2023/07/22 05:08:27;;;;;;;12.93;9.80;;;13.50;99.90;;;;;;5033507;28;20439;-71
2023/07/22 05:10:55;;;;;;;12.10;10.83;;;13.60;99.90;;;;;;5033164;28;20561;-71
2023/07/22 05:13:23;;;;;;;11.80;10.20;;;13.60;99.90;;;;;;5032000;28;20550;-71
2023/07/22 05:15:51;;;;;;;11.73;9.20;;;13.60;99.90;;;;;;5033261;28;20493;-71
2023/07/22 05:18:19;;;;;;;12.07;10.20;;;13.60;99.90;;;;;;5031978;28;20435;-71
2023/07/22 05:20:47;;;;;;;13.60;9.70;;;13.70;99.90;;;;;;5034520;28;20490;-71
2023/07/22 05:23:16;;;;;;;10.13;9.00;;;13.70;99.90;;;;;;5036727;28;21021;-71
2023/07/22 05:25:44;;;;;;;11.90;8.60;;;13.80;99.90;;;;;;5037079;28;20441;-71
2023/07/22 05:28:13;;;;;;;16.47;10.60;;;13.80;99.90;;;;;;5036004;28;20454;-70
2023/07/22 05:30:41;;;;;;;10.57;9.43;;;13.90;99.90;;;;;;5037291;28;21026;-70
2023/07/22 05:33:09;;;;;;;11.93;9.13;;;13.90;99.90;;;;;;5036920;28;20443;-70
2023/07/22 05:35:37;;;;;;;11.03;9.23;;;13.90;99.90;;;;;;5035701;28;20991;-71
2023/07/22 05:38:05;;;;;;;11.07;9.60;;;13.90;99.90;;;;;;5037112;28;20445;-71
2023/07/22 05:40:35;;;;;;;11.67;9.80;;;14.00;99.90;;;;;;5035255;28;20464;-71
2023/07/22 05:43:03;;;;;;;11.67;9.60;;;14.00;99.90;;;;;;5035439;28;20418;-71
2023/07/22 05:45:31;;;;;;;10.57;9.47;;;14.00;99.90;;;;;;5036474;28;20925;-70
2023/07/22 05:47:59;;;;;;;10.37;9.20;;;14.10;99.90;;;;;;5036646;28;20617;-71
2023/07/22 05:50:28;;;;;;;12.33;9.67;;;14.10;99.90;;;;;;5035228;28;20995;-70
2023/07/22 05:52:56;;;;;;;9.50;8.30;;;14.20;99.90;;;;;;5036671;28;20534;-71
2023/07/22 05:55:24;;;;;;;9.87;8.43;;;14.20;99.90;;;;;;5036365;28;20474;-71
2023/07/22 05:57:54;;;;;;;11.87;8.67;;;14.30;99.90;;;;;;5036570;28;20431;-71
2023/07/22 06:00:22;;;;;;;10.57;8.80;;;14.40;99.90;;;;;;5035078;28;20521;-70
2023/07/22 06:02:50;;;;;;;9.50;8.50;;;14.60;99.90;;;;;;5036159;28;20541;-71
2023/07/22 06:05:18;;;;;;;11.10;9.20;;;14.70;99.90;;;;;;5036795;28;20538;-71
2023/07/22 06:07:46;;;;;;;9.30;7.80;;;14.80;99.90;;;;;;5036961;28;20463;-70
2023/07/22 06:10:14;;;;;;;9.43;8.23;;;14.90;99.90;;;;;;5035650;28;20584;-71
2023/07/22 06:12:42;;;;;;;7.87;7.10;;;15.10;99.90;;;;;;5036725;28;20437;-71
2023/07/22 06:15:12;;;;;;;8.83;7.30;;;15.10;99.90;;;;;;5035310;28;21010;-71
2023/07/22 06:17:40;;;;;;;8.73;7.53;;;15.20;99.90;;;;;;5037270;28;20451;-70
2023/07/22 06:20:10;;;;;;;8.27;7.33;;;15.20;99.90;;;;;;5036327;28;20457;-71
2023/07/22 06:22:38;;;;;;;8.40;7.50;;;15.20;99.90;;;;;;5036479;28;20458;-70
2023/07/22 06:25:07;;;;;;;8.93;7.30;;;15.20;99.90;;;;;;5036565;28;20482;-70
2023/07/22 06:27:35;;;;;;;9.03;6.87;;;15.20;99.90;;;;;;5035073;28;20936;-70
2023/07/22 06:30:04;;;;;;;8.83;7.60;;;15.30;99.90;;;;;;5035783;28;20470;-70
2023/07/22 06:32:34;;;;;;;8.33;7.33;;;15.30;99.90;;;;;;5033155;28;20461;-70
2023/07/22 06:35:02;;;;;;;7.73;6.57;;;15.40;99.90;;;;;;5035700;28;20444;-70
2023/07/22 06:37:31;;;;;;;9.93;6.70;;;15.40;99.90;;;;;;5035904;28;20497;-72
2023/07/22 06:39:59;;;;;;;9.20;6.53;;;15.40;99.90;;;;;;5034976;28;20441;-70
2023/07/22 06:42:27;;;;;;;10.57;7.23;;;15.50;99.90;;;;;;5039428;28;20410;-71
2023/07/22 06:44:55;;;;;;;12.80;6.40;;;15.50;99.90;;;;;;5036251;28;20915;-70
2023/07/22 06:47:23;;;;;;;10.70;6.80;;;15.60;99.90;;;;;;5036201;28;20437;-71
2023/07/22 06:49:53;;;;;;;7.50;6.80;;;15.60;99.90;;;;;;5036007;28;20435;-71
2023/07/22 06:52:21;;;;;;;9.43;7.17;;;15.70;99.90;;;;;;5035430;28;20466;-71
2023/07/22 06:54:49;;;;;;;7.07;5.90;;;15.80;99.90;;;;;;5034125;28;20472;-72
2023/07/22 06:57:17;;;;;;;9.17;6.27;;;15.90;99.90;;;;;;5035102;28;20839;-71
2023/07/22 06:59:45;;;;;;;8.47;5.70;;;16.00;99.90;;;;;;5034872;28;20540;-71
2023/07/22 07:02:13;;;;;;;7.70;5.97;;;16.10;99.90;;;;;;5036384;28;20982;-72
2023/07/22 07:04:42;;;;;;;9.83;6.60;;;16.20;99.90;;;;;;5034297;28;20454;-71
2023/07/22 07:07:12;;;;;;;11.00;6.70;;;16.20;99.90;;;;;;5036703;28;20406;-73
2023/07/22 07:09:40;;;;;;;8.77;6.80;;;16.30;99.90;;;;;;5035827;28;20485;-72
2023/07/22 07:12:09;;;;;;;8.03;6.50;;;16.40;99.90;;;;;;5035532;28;20510;-72
2023/07/22 07:14:37;;;;;;;7.40;6.37;;;16.40;99.90;;;;;;5035831;28;20466;-72
2023/07/22 07:17:06;;;;;;;8.03;5.80;;;16.50;99.90;;;;;;5036128;28;20958;-72
2023/07/22 07:19:34;;;;;;;7.90;6.03;;;16.50;99.90;;;;;;5035396;28;20437;-72
2023/07/22 07:22:02;;;;;;;8.03;5.60;;;16.50;99.90;;;;;;5034262;28;20441;-72
2023/07/22 07:24:31;;;;;;;6.63;5.30;;;16.60;99.90;;;;;;5035310;28;20445;-72
2023/07/22 07:27:00;;;;;;;6.93;5.43;;;16.70;99.90;;;;;;5035774;28;20405;-72
2023/07/22 07:29:28;;;;;;;8.57;5.50;;;16.70;99.90;;;;;;5035615;28;20500;-72
2023/07/22 07:32:16;;;;;;;6.53;5.57;;;16.90;99.90;;;;;;5035139;28;20409;-72
2023/07/22 07:34:44;;;;;;;8.20;5.30;;;16.90;99.90;;;;;;5033801;28;20450;-71
2023/07/22 07:37:12;;;;;;;7.37;5.10;;;16.90;99.90;;;;;;5033911;28;20461;-72
2023/07/22 07:39:42;;;;;;;7.80;5.30;;;16.90;99.90;;;;;;5034470;28;20528;-72
2023/07/22 07:42:10;;;;;;;5.87;4.87;;;16.90;99.90;;;;;;5033907;28;20481;-72
2023/07/22 07:44:38;;;;;;;5.40;4.70;;;16.90;99.90;;;;;;5035208;28;20550;-72
2023/07/22 07:47:06;;;;;;;7.20;4.60;;;16.80;99.90;;;;;;5033970;28;20444;-70
2023/07/22 07:49:34;;;;;;;7.97;5.60;;;16.90;99.90;;;;;;5034218;28;20857;-71
2023/07/22 07:52:03;;;;;;;9.20;5.80;;;16.90;99.90;;;;;;5034927;28;20430;-72
2023/07/22 07:54:31;;;;;;;6.23;5.53;;;16.90;99.90;;;;;;5034176;28;20453;-71
2023/07/22 07:57:01;;;;;;;10.37;6.57;;;17.00;99.90;;;;;;5034833;28;20438;-71
2023/07/22 07:59:30;;;;;;;7.10;5.50;;;17.10;99.90;;;;;;5035343;28;20435;-71
2023/07/22 08:01:58;;;;;;;5.60;4.83;;;17.10;99.90;;;;;;5033589;28;20434;-71
2023/07/22 08:04:26;;;;;;;6.90;5.20;;;17.30;99.90;;;;;;5034016;28;20512;-72
2023/07/22 08:06:54;;;;;;;8.70;5.53;;;17.40;99.90;;;;;;5034210;28;20494;-71
2023/07/22 08:09:22;;;;;;;4.97;4.47;;;17.50;99.90;;;;;;5035090;28;20424;-73
2023/07/22 08:11:50;;;;;;;5.47;4.20;;;17.60;99.90;;;;;;5034380;28;20489;-72
2023/07/22 08:14:20;;;;;;;7.43;4.20;;;17.70;99.90;;;;;;5035688;28;20446;-73
2023/07/22 08:16:48;;;;;;;5.20;4.07;;;17.80;99.90;;;;;;5034719;28;20505;-70
2023/07/22 08:19:16;;;;;;;6.10;4.40;;;17.90;99.90;;;;;;5033907;28;20413;-79
2023/07/22 08:21:44;;;;;;;5.43;3.97;;;17.90;99.90;;;;;;5033248;28;20491;-74
2023/07/22 08:24:13;;;;;;;7.03;5.40;;;18.00;99.90;;;;;;5034585;28;20504;-73
2023/07/22 08:26:41;;;;;;;6.80;4.97;;;18.00;99.90;;;;;;5032838;28;20870;-73
2023/07/22 08:29:10;;;;;;;6.60;5.33;;;18.00;99.90;;;;;;5033817;28;20439;-72
2023/07/22 08:31:41;;;;;;;6.83;5.73;;;18.00;99.90;;;;;;5033577;28;20793;-73
2023/07/22 08:34:09;;;;;;;6.87;5.30;;;18.00;99.90;;;;;;5033400;28;20447;-73
2023/07/22 08:36:38;;;;;;;8.57;5.80;;;18.00;99.90;;;;;;5033463;28;20936;-73
2023/07/22 08:39:07;;;;;;;8.10;5.57;;;18.00;99.90;;;;;;5034171;28;20895;-71
2023/07/22 08:41:36;;;;;;;6.23;5.73;;;18.00;99.90;;;;;;5033582;28;20561;-74
2023/07/22 08:44:08;;;;;;;9.40;6.30;;;18.10;99.90;;;;;;5031980;28;20442;-72
2023/07/22 08:46:37;;;;;;;6.83;6.13;;;18.20;99.90;;;;;;5033382;28;20423;-71
2023/07/22 08:49:09;;;;;;;8.93;6.50;;;18.20;99.90;;;;;;5033358;28;20410;-72
2023/07/22 08:51:38;;;;;;;8.93;7.10;;;18.20;99.90;;;;;;5033282;28;20491;-72
2023/07/22 08:54:06;;;;;;;8.00;6.83;;;18.30;99.90;;;;;;5033278;28;20430;-72
2023/07/22 08:56:40;;;;;;;8.43;7.60;;;18.30;99.90;;;;;;5034615;28;20439;-72
2023/07/22 08:59:08;;;;;;;8.60;7.70;;;18.40;99.90;;;;;;5037135;28;20439;-72
2023/07/22 09:01:37;;;;;;;7.87;7.07;;;18.50;99.90;;;;;;5036709;28;20471;-72
2023/07/22 09:04:06;;;;;;;9.07;8.13;;;18.50;99.90;;;;;;5036837;28;21006;-72
2023/07/22 09:06:35;;;;;;;11.87;9.33;;;18.50;99.90;;;;;;5037123;28;20474;-71
2023/07/22 09:09:07;;;;;;;10.20;8.60;;;18.50;99.90;;;;;;5036856;28;20960;-72
2023/07/22 09:11:35;;;;;;;9.40;8.50;;;18.60;99.90;;;;;;5037292;28;20520;-72
2023/07/22 09:14:04;;;;;;;8.50;7.60;;;18.70;99.90;;;;;;5036168;28;20450;-72
2023/07/22 09:16:33;;;;;;;9.53;8.53;;;18.70;99.90;;;;;;5037187;28;20534;-72
2023/07/22 09:19:05;;;;;;;9.57;8.30;;;18.80;99.90;;;;;;5036275;28;20545;-72
2023/07/22 09:21:35;;;;;;;11.57;8.10;;;18.70;99.90;;;;;;5036363;28;20437;-72
2023/07/22 09:24:21;;;;;;;10.30;8.97;;;18.80;99.90;;;;;;5037803;28;20832;-72
2023/07/22 09:26:50;;;;;;;9.17;8.33;;;18.90;99.90;;;;;;5036207;28;20409;-72
2023/07/22 09:29:18;;;;;;;9.20;8.20;;;18.90;99.90;;;;;;5036076;28;20465;-72
2023/07/22 09:31:51;;;;;;;10.30;9.20;;;19.00;99.90;;;;;;5037308;28;20459;-72
2023/07/22 09:34:19;;;;;;;9.93;8.93;;;19.00;99.90;;;;;;5037661;28;20485;-72
2023/07/22 09:36:54;;;;;;;10.33;9.30;;;19.00;99.90;;;;;;5037210;28;20880;-72
2023/07/22 09:39:23;;;;;;;10.03;9.03;;;19.10;99.90;;;;;;5037554;28;20914;-72
2023/07/22 09:41:52;;;;;;;11.37;9.40;;;19.10;99.90;;;;;;5037236;28;20960;-72
2023/07/22 09:44:20;;;;;;;9.93;8.93;;;19.20;99.90;;;;;;5036876;28;20999;-71
2023/07/22 09:46:50;;;;;;;11.30;10.10;;;19.20;99.90;;;;;;5036918;28;20453;-72
2023/07/22 09:49:19;;;;;;;10.77;9.77;;;19.20;99.90;;;;;;5037328;28;20454;-72
2023/07/22 09:51:47;;;;;;;11.40;10.30;;;19.30;99.90;;;;;;5036801;28;20466;-72
2023/07/22 09:54:31;;;;;;;11.13;10.00;;;19.30;99.90;;;;;;5037592;28;20851;-72
2023/07/22 09:57:00;;;;;;;10.80;9.67;;;19.30;99.90;;;;;;5036794;28;20435;-72
2023/07/22 09:59:30;;;;;;;10.73;9.63;;;19.30;99.90;;;;;;5037014;28;20434;-72
2023/07/22 10:02:02;;;;;;;10.87;9.77;;;19.40;99.90;;;;;;5035607;28;20467;-72
2023/07/22 10:04:35;;;;;;;11.93;10.67;;;19.40;99.90;;;;;;5037085;28;20423;-72
2023/07/22 10:07:05;;;;;;;11.10;9.70;;;19.50;99.90;;;;;;5035557;28;20428;-72
2023/07/22 10:09:38;;;;;;;10.70;9.60;;;19.60;99.90;;;;;;5037412;28;20459;-72
2023/07/22 10:12:07;;;;;;;11.53;10.27;;;19.60;99.90;;;;;;5037026;28;20461;-72
2023/07/22 10:14:36;;;;;;;12.37;11.17;;;19.70;99.90;;;;;;5037563;28;20803;-72
2023/07/22 10:17:07;;;;;;;10.70;9.57;;;19.80;99.90;;;;;;5036346;28;20471;-72
2023/07/22 10:19:36;;;;;;;10.97;10.00;;;19.80;99.90;;;;;;5036336;28;20431;-72
2023/07/22 10:22:05;;;;;;;10.00;9.00;;;19.90;99.90;;;;;;5036126;28;20474;-72
2023/07/22 10:24:36;;;;;;;10.90;9.80;;;19.90;99.90;;;;;;5036390;28;20443;-72
2023/07/22 10:27:06;;;;;;;10.83;8.50;;;19.90;99.90;;;;;;5036763;28;20955;-72
2023/07/22 10:29:35;;;;;;;9.20;8.30;;;19.90;99.90;;;;;;5036446;28;20852;-72
2023/07/22 10:32:04;;;;;;;8.27;7.47;;;19.90;99.90;;;;;;5036048;28;20451;-72
2023/07/22 10:34:32;;;;;;;9.73;7.80;;;19.90;99.90;;;;;;5035695;28;20439;-72
2023/07/22 10:37:00;;;;;;;7.87;6.50;;;19.90;99.90;;;;;;5035239;28;20449;-72
2023/07/22 10:39:29;;;;;;;8.30;7.50;;;19.80;99.90;;;;;;5035014;28;20963;-72
2023/07/22 10:42:06;;;;;;;9.30;8.13;;;19.70;99.90;;;;;;5034957;28;20570;-72
2023/07/22 10:44:36;;;;;;;9.13;7.63;;;19.80;99.90;;;;;;5035410;28;20443;-72
2023/07/22 10:47:05;;;;;;;8.47;7.60;;;19.80;99.90;;;;;;5033754;28;20475;-72
2023/07/22 10:49:44;;;;;;;7.87;7.07;;;19.80;99.90;;;;;;5034708;28;20848;-72
2023/07/22 10:52:14;;;;;;;7.77;7.03;;;19.80;99.90;;;;;;5035497;28;20415;-72
2023/07/22 10:54:42;;;;;;;6.90;6.20;;;19.80;99.90;;;;;;5034780;28;20446;-72
2023/07/22 10:57:26;;;;;;;7.57;6.87;;;19.80;99.90;;;;;;5034649;28;20435;-72
2023/07/22 10:59:56;;;;;;;9.20;8.30;;;19.90;99.90;;;;;;5035048;28;20470;-72
2023/07/22 11:02:26;;;;;;;10.10;9.10;;;19.90;99.90;;;;;;5034793;28;20792;-72
2023/07/22 11:04:58;;;;;;;10.33;9.40;;;20.00;99.90;;;;;;5033241;28;20447;-72
2023/07/22 11:07:34;;;;;;;9.80;8.73;;;20.10;99.90;;;;;;5034694;28;20423;-72
2023/07/22 11:10:16;;;;;;;10.30;8.67;;;20.10;99.90;;;;;;5032927;28;20462;-72
2023/07/22 11:12:48;;;;;;;8.80;7.90;;;20.10;99.90;;;;;;5033253;28;20810;-72
2023/07/22 11:15:17;;;;;;;9.83;8.83;;;20.20;99.90;;;;;;5034583;28;20441;-72
2023/07/22 11:17:46;;;;;;;9.20;8.30;;;20.20;99.90;;;;;;5032724;28;20509;-72
2023/07/22 11:20:15;;;;;;;9.77;8.77;;;20.20;99.90;;;;;;5032724;28;20463;-72
2023/07/22 11:22:43;;;;;;;11.57;7.83;;;20.20;99.90;;;;;;5034279;28;20512;-72
2023/07/22 11:25:18;;;;;;;9.20;8.20;;;20.30;99.90;;;;;;5034003;28;20435;-72
2023/07/22 11:27:48;;;;;;;8.80;7.70;;;20.30;99.90;;;;;;5032728;28;20446;-72
2023/07/22 11:30:16;;;;;;;8.13;7.37;;;20.30;99.90;;;;;;5034446;28;20490;-72
2023/07/22 11:32:44;;;;;;;8.30;7.50;;;20.30;99.90;;;;;;5033971;28;20437;-72
2023/07/22 11:35:17;;;;;;;11.47;8.30;;;20.30;99.90;;;;;;5034156;28;20415;-72
2023/07/22 11:37:45;;;;;;;9.90;8.90;;;20.30;99.90;;;;;;5034356;28;20477;-72
2023/07/22 11:40:14;;;;;;;9.53;8.63;;;20.30;99.90;;;;;;5033704;28;21014;-72
2023/07/22 11:42:45;;;;;;;9.57;7.83;;;20.30;99.90;;;;;;5033887;28;20572;-72
2023/07/22 11:45:14;;;;;;;9.13;8.33;;;20.30;99.90;;;;;;5033829;28;20419;-72
2023/07/22 11:47:44;;;;;;;8.50;7.67;;;20.30;99.90;;;;;;5034184;28;20776;-72
2023/07/22 11:50:12;;;;;;;9.80;7.00;;;20.20;99.90;;;;;;5032291;28;20487;-72
2023/07/22 11:52:40;;;;;;;7.97;7.17;;;20.20;99.90;;;;;;5032258;28;20517;-72
2023/07/22 11:55:09;;;;;;;7.80;7.10;;;20.10;99.90;;;;;;5033651;28;20947;-72
2023/07/22 11:57:52;;;;;;;8.87;8.07;;;20.10;99.90;;;;;;5034052;28;20488;-71
2023/07/22 12:00:22;;;;;;;8.63;7.83;;;20.10;99.90;;;;;;5033868;28;20461;-72
2023/07/22 12:02:51;;;;;;;8.97;8.00;;;20.00;99.90;;;;;;5033709;28;20478;-72
2023/07/22 12:05:22;;;;;;;9.50;8.63;;;20.00;99.90;;;;;;5032136;28;20486;-72
2023/07/22 12:07:51;;;;;;;9.23;8.30;;;19.90;99.90;;;;;;5033649;28;20434;-72
2023/07/22 12:10:19;;;;;;;9.90;8.10;;;19.90;99.90;;;;;;5033244;28;20509;-72
2023/07/22 12:12:49;;;;;;;9.20;8.30;;;19.80;99.90;;;;;;5033840;28;20443;-72
2023/07/22 12:15:19;;;;;;;8.67;7.70;;;19.80;99.90;;;;;;5034009;28;20915;-72
2023/07/22 12:17:53;;;;;;;8.53;7.73;;;19.70;99.90;;;;;;5032229;28;20527;-72
2023/07/22 12:20:25;;;;;;;9.23;8.30;;;19.70;99.90;;;;;;5033475;28;20981;-72
2023/07/22 12:22:53;;;;;;;9.23;8.03;;;19.60;99.90;;;;;;5033600;28;20497;-72
2023/07/22 12:25:21;;;;;;;9.20;8.30;;;19.60;99.90;;;;;;5033412;28;20471;-73
2023/07/22 12:27:49;;;;;;;9.07;8.10;;;19.60;99.90;;;;;;5033580;28;20466;-72
2023/07/22 12:30:18;;;;;;;9.13;8.33;;;19.60;99.90;;;;;;5033802;28;20464;-72
2023/07/22 12:32:47;;;;;;;10.30;9.20;;;19.60;99.90;;;;;;5037316;28;20462;-72
2023/07/22 12:35:17;;;;;;;9.23;8.43;;;19.60;99.90;;;;;;5037490;28;21079;-72
2023/07/22 12:37:45;;;;;;;10.53;9.63;;;19.50;99.90;;;;;;5036144;28;20605;-72
2023/07/22 12:40:15;;;;;;;10.97;9.97;;;19.40;99.90;;;;;;5037181;28;20510;-73
2023/07/22 12:42:43;;;;;;;10.90;10.00;;;19.30;99.90;;;;;;5035819;28;20520;-73
2023/07/22 12:45:11;;;;;;;11.60;10.50;;;19.30;99.90;;;;;;5037129;28;20439;-73
2023/07/22 12:47:39;;;;;;;10.90;9.90;;;19.10;99.90;;;;;;5037003;28;20439;-73
2023/07/22 12:50:08;;;;;;;12.00;10.77;;;19.10;99.90;;;;;;5036983;28;20548;-73